sensor_id;sensor_type;location;lat;lon;timestamp;temperature;humidity
43581;DHT22;29175;51.030;4.606;2023-07-20T00:02:11;17.90;99.90
43581;DHT22;29175;51.030;4.606;2023-07-20T00:04:37;17.90;99.90
43581;DHT22;29175;51.030;4.606;2023-07-20T00:07:04;17.80;99.90
43581;DHT22;29175;51.030;4.606;2023-07-20T00:09:29;18.00;99.90
43581;DHT22;29175;51.030;4.606;2023-07-20T00:11:56;18.10;99.90
43581;DHT22;29175;51.030;4.606;2023-07-20T00:14:22;18.20;99.90
43581;DHT22;29175;51.030;4.606;2023-07-20T00:16:50;18.10;99.90
43581;DHT22;29175;51.030;4.606;2023-07-20T00:19:22;18.20;99.90
43581;DHT22;29175;51.030;4.606;2023-07-20T00:21:49;18.20;99.90
43581;DHT22;29175;51.030;4.606;2023-07-20T00:24:16;18.30;99.90
43581;DHT22;29175;51.030;4.606;2023-07-20T00:26:41;18.10;99.90
43581;DHT22;29175;51.030;4.606;2023-07-20T00:29:09;18.30;99.90
43581;DHT22;29175;51.030;4.606;2023-07-20T00:31:35;18.30;99.90
43581;DHT22;29175;51.030;4.606;2023-07-20T00:34:03;18.30;99.90
43581;DHT22;29175;51.030;4.606;2023-07-20T00:36:29;18.20;99.90
43581;DHT22;29175;51.030;4.606;2023-07-20T00:38:54;18.20;99.90
43581;DHT22;29175;51.030;4.606;2023-07-20T00:41:20;18.10;99.90
43581;DHT22;29175;51.030;4.606;2023-07-20T00:43:47;18.30;99.90
43581;DHT22;29175;51.030;4.606;2023-07-20T00:46:14;18.40;99.90
43581;DHT22;29175;51.030;4.606;2023-07-20T00:48:41;18.30;99.90
43581;DHT22;29175;51.030;4.606;2023-07-20T00:51:08;18.40;99.90
43581;DHT22;29175;51.030;4.606;2023-07-20T00:53:34;18.40;99.90
43581;DHT22;29175;51.030;4.606;2023-07-20T00:56:00;18.40;99.90
43581;DHT22;29175;51.030;4.606;2023-07-20T00:58:25;18.20;99.90
43581;DHT22;29175;51.030;4.606;2023-07-20T01:00:52;18.10;99.90
43581;DHT22;29175;51.030;4.606;2023-07-20T01:03:18;18.10;99.90
43581;DHT22;29175;51.030;4.606;2023-07-20T01:14:14;18.20;99.90
43581;DHT22;29175;51.030;4.606;2023-07-20T01:16:42;18.20;99.90
43581;DHT22;29175;51.030;4.606;2023-07-20T01:19:07;18.20;99.90
43581;DHT22;29175;51.030;4.606;2023-07-20T01:21:50;18.30;99.90
43581;DHT22;29175;51.030;4.606;2023-07-20T01:30:30;18.00;99.90
43581;DHT22;29175;51.030;4.606;2023-07-20T01:32:59;17.90;99.90
43581;DHT22;29175;51.030;4.606;2023-07-20T01:35:29;17.70;99.90
43581;DHT22;29175;51.030;4.606;2023-07-20T01:37:55;17.90;99.90
43581;DHT22;29175;51.030;4.606;2023-07-20T01:40:24;17.80;99.90
43581;DHT22;29175;51.030;4.606;2023-07-20T01:42:51;17.70;99.90
43581;DHT22;29175;51.030;4.606;2023-07-20T01:45:17;17.70;99.90
43581;DHT22;29175;51.030;4.606;2023-07-20T01:47:43;17.60;99.90
43581;DHT22;29175;51.030;4.606;2023-07-20T01:50:09;17.80;99.90
43581;DHT22;29175;51.030;4.606;2023-07-20T01:52:35;17.50;99.90
43581;DHT22;29175;51.030;4.606;2023-07-20T01:55:01;17.60;99.90
43581;DHT22;29175;51.030;4.606;2023-07-20T01:57:26;17.80;99.90
43581;DHT22;29175;51.030;4.606;2023-07-20T01:59:52;17.50;99.90
43581;DHT22;29175;51.030;4.606;2023-07-20T02:02:18;17.50;99.90
43581;DHT22;29175;51.030;4.606;2023-07-20T02:04:44;17.30;99.90
43581;DHT22;29175;51.030;4.606;2023-07-20T02:07:09;17.20;99.90
43581;DHT22;29175;51.030;4.606;2023-07-20T02:09:35;17.00;99.90
43581;DHT22;29175;51.030;4.606;2023-07-20T02:12:01;17.00;99.90
43581;DHT22;29175;51.030;4.606;2023-07-20T02:14:26;17.20;99.90
43581;DHT22;29175;51.030;4.606;2023-07-20T02:16:52;17.30;99.90
43581;DHT22;29175;51.030;4.606;2023-07-20T02:19:20;17.40;99.90
43581;DHT22;29175;51.030;4.606;2023-07-20T02:21:46;17.20;99.90
43581;DHT22;29175;51.030;4.606;2023-07-20T02:24:12;17.30;99.90
43581;DHT22;29175;51.030;4.606;2023-07-20T02:26:38;17.30;99.90
43581;DHT22;29175;51.030;4.606;2023-07-20T02:29:04;17.30;99.90
43581;DHT22;29175;51.030;4.606;2023-07-20T02:31:34;17.10;99.90
43581;DHT22;29175;51.030;4.606;2023-07-20T02:34:03;17.10;99.90
43581;DHT22;29175;51.030;4.606;2023-07-20T02:36:28;17.00;99.90
43581;DHT22;29175;51.030;4.606;2023-07-20T02:38:55;17.00;99.90
43581;DHT22;29175;51.030;4.606;2023-07-20T02:41:21;16.90;99.90
43581;DHT22;29175;51.030;4.606;2023-07-20T02:43:48;16.80;99.90
43581;DHT22;29175;51.030;4.606;2023-07-20T02:46:13;16.60;99.90
43581;DHT22;29175;51.030;4.606;2023-07-20T02:48:39;16.70;99.90
43581;DHT22;29175;51.030;4.606;2023-07-20T02:51:05;16.70;99.90
43581;DHT22;29175;51.030;4.606;2023-07-20T02:53:30;16.70;99.90
43581;DHT22;29175;51.030;4.606;2023-07-20T02:55:56;16.50;99.90
43581;DHT22;29175;51.030;4.606;2023-07-20T02:58:22;16.40;99.90
43581;DHT22;29175;51.030;4.606;2023-07-20T03:00:47;16.40;99.90
43581;DHT22;29175;51.030;4.606;2023-07-20T03:03:13;16.40;99.90
43581;DHT22;29175;51.030;4.606;2023-07-20T03:05:41;16.50;99.90
43581;DHT22;29175;51.030;4.606;2023-07-20T03:08:07;16.40;99.90
43581;DHT22;29175;51.030;4.606;2023-07-20T03:10:33;16.40;99.90
43581;DHT22;29175;51.030;4.606;2023-07-20T03:13:03;16.40;99.90
43581;DHT22;29175;51.030;4.606;2023-07-20T03:15:29;16.30;99.90
43581;DHT22;29175;51.030;4.606;2023-07-20T03:17:55;16.20;99.90
43581;DHT22;29175;51.030;4.606;2023-07-20T03:20:21;16.20;99.90
43581;DHT22;29175;51.030;4.606;2023-07-20T03:22:47;16.20;99.90
43581;DHT22;29175;51.030;4.606;2023-07-20T03:25:13;16.00;99.90
43581;DHT22;29175;51.030;4.606;2023-07-20T03:27:38;16.00;99.90
43581;DHT22;29175;51.030;4.606;2023-07-20T03:30:05;16.00;99.90
43581;DHT22;29175;51.030;4.606;2023-07-20T03:32:32;16.10;99.90
43581;DHT22;29175;51.030;4.606;2023-07-20T03:34:59;16.10;99.90
43581;DHT22;29175;51.030;4.606;2023-07-20T03:37:25;16.10;99.90
43581;DHT22;29175;51.030;4.606;2023-07-20T03:39:51;16.30;99.90
43581;DHT22;29175;51.030;4.606;2023-07-20T03:42:17;16.40;99.90
43581;DHT22;29175;51.030;4.606;2023-07-20T03:44:44;16.60;99.90
43581;DHT22;29175;51.030;4.606;2023-07-20T03:47:11;16.80;99.90
43581;DHT22;29175;51.030;4.606;2023-07-20T03:49:36;16.90;99.90
43581;DHT22;29175;51.030;4.606;2023-07-20T03:52:02;17.00;99.90
43581;DHT22;29175;51.030;4.606;2023-07-20T03:54:31;17.00;99.90
43581;DHT22;29175;51.030;4.606;2023-07-20T03:56:58;17.00;99.90
43581;DHT22;29175;51.030;4.606;2023-07-20T03:59:24;17.10;99.90
43581;DHT22;29175;51.030;4.606;2023-07-20T04:01:50;17.00;99.90
43581;DHT22;29175;51.030;4.606;2023-07-20T04:04:17;16.80;99.90
43581;DHT22;29175;51.030;4.606;2023-07-20T04:06:42;16.90;99.90
43581;DHT22;29175;51.030;4.606;2023-07-20T04:09:12;17.00;99.90
43581;DHT22;29175;51.030;4.606;2023-07-20T04:11:38;17.00;99.90
43581;DHT22;29175;51.030;4.606;2023-07-20T04:14:04;16.90;99.90
43581;DHT22;29175;51.030;4.606;2023-07-20T04:16:29;16.90;99.90
43581;DHT22;29175;51.030;4.606;2023-07-20T04:18:57;16.90;99.90
43581;DHT22;29175;51.030;4.606;2023-07-20T04:21:25;17.00;99.90
43581;DHT22;29175;51.030;4.606;2023-07-20T04:23:51;17.20;99.90
43581;DHT22;29175;51.030;4.606;2023-07-20T04:26:16;17.30;99.90
43581;DHT22;29175;51.030;4.606;2023-07-20T04:28:42;17.30;99.90
43581;DHT22;29175;51.030;4.606;2023-07-20T04:31:12;17.40;99.90
43581;DHT22;29175;51.030;4.606;2023-07-20T04:33:38;17.40;99.90
43581;DHT22;29175;51.030;4.606;2023-07-20T04:36:04;17.40;99.90
43581;DHT22;29175;51.030;4.606;2023-07-20T04:38:30;17.20;99.90
43581;DHT22;29175;51.030;4.606;2023-07-20T04:40:55;17.30;99.90
43581;DHT22;29175;51.030;4.606;2023-07-20T04:43:21;17.40;99.90
43581;DHT22;29175;51.030;4.606;2023-07-20T04:45:47;17.60;99.90
43581;DHT22;29175;51.030;4.606;2023-07-20T04:48:14;17.40;99.90
43581;DHT22;29175;51.030;4.606;2023-07-20T04:50:41;17.50;99.90
43581;DHT22;29175;51.030;4.606;2023-07-20T04:53:08;17.60;99.90
43581;DHT22;29175;51.030;4.606;2023-07-20T04:55:35;17.70;99.90
43581;DHT22;29175;51.030;4.606;2023-07-20T04:58:02;17.70;99.90
43581;DHT22;29175;51.030;4.606;2023-07-20T05:00:29;17.80;99.90
43581;DHT22;29175;51.030;4.606;2023-07-20T05:02:55;17.90;99.90
43581;DHT22;29175;51.030;4.606;2023-07-20T05:05:21;17.90;99.90
43581;DHT22;29175;51.030;4.606;2023-07-20T05:07:47;17.90;99.90
43581;DHT22;29175;51.030;4.606;2023-07-20T05:10:13;18.00;99.90
43581;DHT22;29175;51.030;4.606;2023-07-20T05:12:38;18.10;99.90
43581;DHT22;29175;51.030;4.606;2023-07-20T05:15:04;18.20;99.90
43581;DHT22;29175;51.030;4.606;2023-07-20T05:17:30;18.30;99.90
43581;DHT22;29175;51.030;4.606;2023-07-20T05:19:56;18.40;99.90
43581;DHT22;29175;51.030;4.606;2023-07-20T05:22:22;18.40;99.90
43581;DHT22;29175;51.030;4.606;2023-07-20T05:24:48;18.30;99.90
43581;DHT22;29175;51.030;4.606;2023-07-20T05:27:14;18.40;99.90
43581;DHT22;29175;51.030;4.606;2023-07-20T05:29:48;18.30;99.90
43581;DHT22;29175;51.030;4.606;2023-07-20T05:32:14;18.50;99.90
43581;DHT22;29175;51.030;4.606;2023-07-20T05:34:40;18.70;99.90
43581;DHT22;29175;51.030;4.606;2023-07-20T05:37:05;18.70;99.90
43581;DHT22;29175;51.030;4.606;2023-07-20T05:39:34;18.90;99.90
43581;DHT22;29175;51.030;4.606;2023-07-20T05:42:00;19.00;99.90
43581;DHT22;29175;51.030;4.606;2023-07-20T05:44:25;19.10;99.90
43581;DHT22;29175;51.030;4.606;2023-07-20T05:46:51;19.10;99.90
43581;DHT22;29175;51.030;4.606;2023-07-20T05:49:18;18.90;99.90
43581;DHT22;29175;51.030;4.606;2023-07-20T05:51:44;19.10;99.90
43581;DHT22;29175;51.030;4.606;2023-07-20T05:54:09;19.20;99.90
43581;DHT22;29175;51.030;4.606;2023-07-20T05:56:35;19.30;99.90
43581;DHT22;29175;51.030;4.606;2023-07-20T05:59:01;19.30;99.90
43581;DHT22;29175;51.030;4.606;2023-07-20T06:01:27;19.30;99.90
43581;DHT22;29175;51.030;4.606;2023-07-20T06:03:53;19.40;99.90
43581;DHT22;29175;51.030;4.606;2023-07-20T06:06:19;19.50;99.90
43581;DHT22;29175;51.030;4.606;2023-07-20T06:08:45;19.60;99.90
43581;DHT22;29175;51.030;4.606;2023-07-20T06:11:11;19.70;99.90
43581;DHT22;29175;51.030;4.606;2023-07-20T06:13:36;19.70;99.90
43581;DHT22;29175;51.030;4.606;2023-07-20T06:16:03;19.70;99.90
43581;DHT22;29175;51.030;4.606;2023-07-20T06:18:29;19.40;99.90
43581;DHT22;29175;51.030;4.606;2023-07-20T06:20:56;19.40;99.90
43581;DHT22;29175;51.030;4.606;2023-07-20T06:23:21;19.80;99.90
43581;DHT22;29175;51.030;4.606;2023-07-20T06:25:47;20.20;99.90
43581;DHT22;29175;51.030;4.606;2023-07-20T06:28:13;20.20;99.90
43581;DHT22;29175;51.030;4.606;2023-07-20T06:30:39;20.40;99.90
43581;DHT22;29175;51.030;4.606;2023-07-20T06:33:05;20.40;99.90
43581;DHT22;29175;51.030;4.606;2023-07-20T06:35:31;20.30;99.90
43581;DHT22;29175;51.030;4.606;2023-07-20T06:37:57;20.10;99.90
43581;DHT22;29175;51.030;4.606;2023-07-20T06:40:24;20.10;99.90
43581;DHT22;29175;51.030;4.606;2023-07-20T06:42:50;19.90;99.90
43581;DHT22;29175;51.030;4.606;2023-07-20T06:45:15;19.60;99.90
43581;DHT22;29175;51.030;4.606;2023-07-20T06:47:41;19.70;99.90
43581;DHT22;29175;51.030;4.606;2023-07-20T06:50:08;19.60;99.90
43581;DHT22;29175;51.030;4.606;2023-07-20T06:52:34;19.80;99.90
43581;DHT22;29175;51.030;4.606;2023-07-20T06:55:00;20.00;99.90
43581;DHT22;29175;51.030;4.606;2023-07-20T06:57:26;20.80;99.90
43581;DHT22;29175;51.030;4.606;2023-07-20T06:59:52;21.60;99.90
43581;DHT22;29175;51.030;4.606;2023-07-20T07:02:19;21.90;99.90
43581;DHT22;29175;51.030;4.606;2023-07-20T07:04:44;21.90;99.90
43581;DHT22;29175;51.030;4.606;2023-07-20T07:07:15;21.80;99.90
43581;DHT22;29175;51.030;4.606;2023-07-20T07:09:41;21.80;99.90
43581;DHT22;29175;51.030;4.606;2023-07-20T07:12:07;21.40;99.90
43581;DHT22;29175;51.030;4.606;2023-07-20T07:14:33;21.40;99.90
43581;DHT22;29175;51.030;4.606;2023-07-20T07:17:00;21.00;99.90
43581;DHT22;29175;51.030;4.606;2023-07-20T07:19:25;20.60;99.90
43581;DHT22;29175;51.030;4.606;2023-07-20T07:21:51;20.60;99.90
43581;DHT22;29175;51.030;4.606;2023-07-20T07:24:17;21.00;99.90
43581;DHT22;29175;51.030;4.606;2023-07-20T07:26:42;21.20;99.90
43581;DHT22;29175;51.030;4.606;2023-07-20T07:29:08;21.30;99.90
43581;DHT22;29175;51.030;4.606;2023-07-20T07:31:34;22.10;99.90
43581;DHT22;29175;51.030;4.606;2023-07-20T07:34:01;22.40;99.90
43581;DHT22;29175;51.030;4.606;2023-07-20T07:36:27;22.80;99.90
43581;DHT22;29175;51.030;4.606;2023-07-20T07:38:53;22.60;99.90
43581;DHT22;29175;51.030;4.606;2023-07-20T07:41:19;22.70;99.90
43581;DHT22;29175;51.030;4.606;2023-07-20T07:43:46;22.10;99.90
43581;DHT22;29175;51.030;4.606;2023-07-20T07:46:11;22.20;99.90
43581;DHT22;29175;51.030;4.606;2023-07-20T07:48:37;22.30;99.90
43581;DHT22;29175;51.030;4.606;2023-07-20T07:51:03;22.50;99.90
43581;DHT22;29175;51.030;4.606;2023-07-20T07:53:29;22.50;99.90
43581;DHT22;29175;51.030;4.606;2023-07-20T07:55:54;22.10;99.90
43581;DHT22;29175;51.030;4.606;2023-07-20T07:58:20;22.20;99.90
43581;DHT22;29175;51.030;4.606;2023-07-20T08:00:46;21.90;99.90
43581;DHT22;29175;51.030;4.606;2023-07-20T08:03:13;21.90;99.90
43581;DHT22;29175;51.030;4.606;2023-07-20T08:05:39;22.10;99.90
43581;DHT22;29175;51.030;4.606;2023-07-20T08:08:04;22.60;99.90
43581;DHT22;29175;51.030;4.606;2023-07-20T08:10:30;22.90;99.90
43581;DHT22;29175;51.030;4.606;2023-07-20T08:12:56;22.90;99.90
43581;DHT22;29175;51.030;4.606;2023-07-20T08:15:22;23.20;99.90
43581;DHT22;29175;51.030;4.606;2023-07-20T08:17:48;23.20;99.90
43581;DHT22;29175;51.030;4.606;2023-07-20T08:20:14;23.00;99.90
43581;DHT22;29175;51.030;4.606;2023-07-20T08:22:41;22.60;99.90
43581;DHT22;29175;51.030;4.606;2023-07-20T08:25:08;22.60;99.90
43581;DHT22;29175;51.030;4.606;2023-07-20T08:27:35;23.00;99.90
43581;DHT22;29175;51.030;4.606;2023-07-20T08:30:02;24.70;99.90
43581;DHT22;29175;51.030;4.606;2023-07-20T08:32:28;27.00;96.50
43581;DHT22;29175;51.030;4.606;2023-07-20T08:34:53;29.00;92.60
43581;DHT22;29175;51.030;4.606;2023-07-20T08:37:19;30.80;90.00
43581;DHT22;29175;51.030;4.606;2023-07-20T08:39:44;31.10;86.50
43581;DHT22;29175;51.030;4.606;2023-07-20T08:42:10;31.40;83.70
43581;DHT22;29175;51.030;4.606;2023-07-20T08:44:38;31.80;82.50
43581;DHT22;29175;51.030;4.606;2023-07-20T08:47:06;32.80;82.70
43581;DHT22;29175;51.030;4.606;2023-07-20T08:49:32;34.40;81.60
43581;DHT22;29175;51.030;4.606;2023-07-20T08:51:59;35.30;74.80
43581;DHT22;29175;51.030;4.606;2023-07-20T08:54:30;34.00;76.30
43581;DHT22;29175;51.030;4.606;2023-07-20T08:57:00;32.60;80.00
43581;DHT22;29175;51.030;4.606;2023-07-20T08:59:28;31.70;83.10
43581;DHT22;29175;51.030;4.606;2023-07-20T09:01:56;31.00;83.80
43581;DHT22;29175;51.030;4.606;2023-07-20T09:04:22;32.70;81.00
43581;DHT22;29175;51.030;4.606;2023-07-20T09:06:49;33.20;76.50
43581;DHT22;29175;51.030;4.606;2023-07-20T09:09:16;34.20;76.40
43581;DHT22;29175;51.030;4.606;2023-07-20T09:11:42;36.00;72.60
43581;DHT22;29175;51.030;4.606;2023-07-20T09:14:09;34.10;71.50
43581;DHT22;29175;51.030;4.606;2023-07-20T09:16:51;33.90;72.30
43581;DHT22;29175;51.030;4.606;2023-07-20T09:19:17;35.50;74.20
43581;DHT22;29175;51.030;4.606;2023-07-20T09:21:51;37.40;70.10
43581;DHT22;29175;51.030;4.606;2023-07-20T09:24:18;38.70;66.80
43581;DHT22;29175;51.030;4.606;2023-07-20T09:26:45;38.30;63.20
43581;DHT22;29175;51.030;4.606;2023-07-20T09:29:13;38.20;65.10
43581;DHT22;29175;51.030;4.606;2023-07-20T09:31:39;38.50;64.10
43581;DHT22;29175;51.030;4.606;2023-07-20T09:34:06;39.70;64.10
43581;DHT22;29175;51.030;4.606;2023-07-20T09:36:36;41.10;63.30
43581;DHT22;29175;51.030;4.606;2023-07-20T09:39:03;41.90;60.80
43581;DHT22;29175;51.030;4.606;2023-07-20T09:41:29;40.90;61.50
43581;DHT22;29175;51.030;4.606;2023-07-20T09:43:55;41.40;60.50
43581;DHT22;29175;51.030;4.606;2023-07-20T09:46:22;40.90;59.80
43581;DHT22;29175;51.030;4.606;2023-07-20T09:48:54;40.50;60.60
43581;DHT22;29175;51.030;4.606;2023-07-20T09:51:23;38.50;62.00
43581;DHT22;29175;51.030;4.606;2023-07-20T09:53:52;37.10;65.00
43581;DHT22;29175;51.030;4.606;2023-07-20T09:56:18;34.70;68.90
43581;DHT22;29175;51.030;4.606;2023-07-20T09:58:46;33.00;71.80
43581;DHT22;29175;51.030;4.606;2023-07-20T10:01:13;32.80;73.90
43581;DHT22;29175;51.030;4.606;2023-07-20T10:03:43;31.30;73.00
43581;DHT22;29175;51.030;4.606;2023-07-20T10:06:14;31.80;74.30
43581;DHT22;29175;51.030;4.606;2023-07-20T10:08:41;33.40;71.10
43581;DHT22;29175;51.030;4.606;2023-07-20T10:11:07;32.50;69.50
43581;DHT22;29175;51.030;4.606;2023-07-20T10:13:38;32.40;71.10
43581;DHT22;29175;51.030;4.606;2023-07-20T10:16:10;33.30;71.60
43581;DHT22;29175;51.030;4.606;2023-07-20T10:21:25;34.20;69.60
43581;DHT22;29175;51.030;4.606;2023-07-20T10:23:51;34.50;68.30
43581;DHT22;29175;51.030;4.606;2023-07-20T10:26:17;33.80;69.10
43581;DHT22;29175;51.030;4.606;2023-07-20T10:28:43;33.20;72.50
43581;DHT22;29175;51.030;4.606;2023-07-20T10:31:11;33.30;69.10
43581;DHT22;29175;51.030;4.606;2023-07-20T10:33:38;31.40;72.10
43581;DHT22;29175;51.030;4.606;2023-07-20T10:36:05;30.50;72.50
43581;DHT22;29175;51.030;4.606;2023-07-20T10:41:22;29.30;76.50
43581;DHT22;29175;51.030;4.606;2023-07-20T10:43:55;28.50;81.00
43581;DHT22;29175;51.030;4.606;2023-07-20T10:46:44;27.90;83.80
43581;DHT22;29175;51.030;4.606;2023-07-20T10:49:11;27.80;83.00
43581;DHT22;29175;51.030;4.606;2023-07-20T10:51:44;29.10;81.40
43581;DHT22;29175;51.030;4.606;2023-07-20T10:56:43;31.40;74.50
43581;DHT22;29175;51.030;4.606;2023-07-20T11:01:59;30.40;76.10
43581;DHT22;29175;51.030;4.606;2023-07-20T11:04:43;29.90;75.60
43581;DHT22;29175;51.030;4.606;2023-07-20T11:07:10;29.90;75.20
43581;DHT22;29175;51.030;4.606;2023-07-20T11:09:38;29.70;76.40
43581;DHT22;29175;51.030;4.606;2023-07-20T11:12:17;28.70;80.60
43581;DHT22;29175;51.030;4.606;2023-07-20T11:14:53;28.80;78.30
43581;DHT22;29175;51.030;4.606;2023-07-20T11:17:19;29.10;78.80
43581;DHT22;29175;51.030;4.606;2023-07-20T11:19:55;29.50;79.00
43581;DHT22;29175;51.030;4.606;2023-07-20T11:22:22;29.50;79.00
43581;DHT22;29175;51.030;4.606;2023-07-20T11:24:48;29.40;78.10
43581;DHT22;29175;51.030;4.606;2023-07-20T11:27:16;29.00;80.00
43581;DHT22;29175;51.030;4.606;2023-07-20T11:29:45;29.50;77.10
43581;DHT22;29175;51.030;4.606;2023-07-20T11:32:11;30.80;77.00
43581;DHT22;29175;51.030;4.606;2023-07-20T11:34:36;31.40;74.90
43581;DHT22;29175;51.030;4.606;2023-07-20T11:37:02;30.90;73.60
43581;DHT22;29175;51.030;4.606;2023-07-20T11:39:29;30.40;74.30
43581;DHT22;29175;51.030;4.606;2023-07-20T11:41:56;30.00;75.70
43581;DHT22;29175;51.030;4.606;2023-07-20T11:44:23;30.00;75.80
43581;DHT22;29175;51.030;4.606;2023-07-20T11:47:07;30.50;76.00
43581;DHT22;29175;51.030;4.606;2023-07-20T11:49:37;30.00;76.20
43581;DHT22;29175;51.030;4.606;2023-07-20T11:52:07;30.10;78.70
43581;DHT22;29175;51.030;4.606;2023-07-20T11:54:34;29.80;74.90
43581;DHT22;29175;51.030;4.606;2023-07-20T11:57:01;29.80;73.90
43581;DHT22;29175;51.030;4.606;2023-07-20T11:59:27;29.90;75.10
43581;DHT22;29175;51.030;4.606;2023-07-20T12:01:53;29.80;75.70
43581;DHT22;29175;51.030;4.606;2023-07-20T12:04:18;29.10;77.10
43581;DHT22;29175;51.030;4.606;2023-07-20T12:06:45;28.50;80.30
43581;DHT22;29175;51.030;4.606;2023-07-20T12:09:16;28.30;77.90
43581;DHT22;29175;51.030;4.606;2023-07-20T12:11:43;28.20;78.10
43581;DHT22;29175;51.030;4.606;2023-07-20T12:14:11;27.60;79.80
43581;DHT22;29175;51.030;4.606;2023-07-20T12:16:37;27.60;80.30
43581;DHT22;29175;51.030;4.606;2023-07-20T12:19:07;27.30;83.40
43581;DHT22;29175;51.030;4.606;2023-07-20T12:21:38;27.50;82.30
43581;DHT22;29175;51.030;4.606;2023-07-20T12:24:04;27.60;81.30
43581;DHT22;29175;51.030;4.606;2023-07-20T12:26:32;27.50;81.50
43581;DHT22;29175;51.030;4.606;2023-07-20T12:28:58;27.00;78.10
43581;DHT22;29175;51.030;4.606;2023-07-20T12:31:25;27.10;78.50
43581;DHT22;29175;51.030;4.606;2023-07-20T12:33:52;26.70;80.50
43581;DHT22;29175;51.030;4.606;2023-07-20T12:36:18;26.60;83.80
43581;DHT22;29175;51.030;4.606;2023-07-20T12:38:44;27.00;79.60
43581;DHT22;29175;51.030;4.606;2023-07-20T12:41:11;27.10;80.60
43581;DHT22;29175;51.030;4.606;2023-07-20T12:43:41;26.90;82.20
43581;DHT22;29175;51.030;4.606;2023-07-20T12:46:07;26.80;85.60
43581;DHT22;29175;51.030;4.606;2023-07-20T12:48:36;26.60;83.80
43581;DHT22;29175;51.030;4.606;2023-07-20T12:51:06;26.50;84.90
43581;DHT22;29175;51.030;4.606;2023-07-20T12:53:32;26.40;82.20
43581;DHT22;29175;51.030;4.606;2023-07-20T12:56:01;26.10;85.50
43581;DHT22;29175;51.030;4.606;2023-07-20T12:58:27;26.00;86.40
43581;DHT22;29175;51.030;4.606;2023-07-20T13:00:53;25.80;86.10
43581;DHT22;29175;51.030;4.606;2023-07-20T13:03:19;25.50;87.60
43581;DHT22;29175;51.030;4.606;2023-07-20T13:05:46;25.50;83.70
43581;DHT22;29175;51.030;4.606;2023-07-20T13:08:12;25.10;88.90
43581;DHT22;29175;51.030;4.606;2023-07-20T13:10:38;25.00;90.00
43581;DHT22;29175;51.030;4.606;2023-07-20T13:13:04;24.90;87.70
43581;DHT22;29175;51.030;4.606;2023-07-20T13:15:31;24.80;88.60
43581;DHT22;29175;51.030;4.606;2023-07-20T13:17:58;24.80;87.10
43581;DHT22;29175;51.030;4.606;2023-07-20T13:20:24;24.80;89.00
43581;DHT22;29175;51.030;4.606;2023-07-20T13:22:50;24.80;89.20
43581;DHT22;29175;51.030;4.606;2023-07-20T13:25:16;24.80;89.70
43581;DHT22;29175;51.030;4.606;2023-07-20T13:27:42;24.70;90.20
43581;DHT22;29175;51.030;4.606;2023-07-20T13:30:07;24.60;90.70
43581;DHT22;29175;51.030;4.606;2023-07-20T13:32:39;24.70;90.40
43581;DHT22;29175;51.030;4.606;2023-07-20T13:35:05;24.50;90.70
43581;DHT22;29175;51.030;4.606;2023-07-20T13:37:30;24.60;91.00
43581;DHT22;29175;51.030;4.606;2023-07-20T13:39:56;24.60;90.90
43581;DHT22;29175;51.030;4.606;2023-07-20T13:42:22;24.60;90.00
43581;DHT22;29175;51.030;4.606;2023-07-20T13:44:51;24.60;89.90
43581;DHT22;29175;51.030;4.606;2023-07-20T13:47:17;24.60;89.00
43581;DHT22;29175;51.030;4.606;2023-07-20T13:49:43;24.50;89.40
43581;DHT22;29175;51.030;4.606;2023-07-20T13:52:09;24.40;90.00
43581;DHT22;29175;51.030;4.606;2023-07-20T13:54:35;24.20;91.30
43581;DHT22;29175;51.030;4.606;2023-07-20T13:57:00;24.20;91.50
43581;DHT22;29175;51.030;4.606;2023-07-20T13:59:26;24.20;90.90
43581;DHT22;29175;51.030;4.606;2023-07-20T14:01:52;24.20;90.90
43581;DHT22;29175;51.030;4.606;2023-07-20T14:04:17;24.30;90.80
43581;DHT22;29175;51.030;4.606;2023-07-20T14:06:43;24.10;91.20
43581;DHT22;29175;51.030;4.606;2023-07-20T14:09:09;24.10;91.30
43581;DHT22;29175;51.030;4.606;2023-07-20T14:11:35;24.00;91.20
43581;DHT22;29175;51.030;4.606;2023-07-20T14:14:00;24.00;90.40
43581;DHT22;29175;51.030;4.606;2023-07-20T14:16:26;23.90;91.30
43581;DHT22;29175;51.030;4.606;2023-07-20T14:18:52;23.60;91.60
43581;DHT22;29175;51.030;4.606;2023-07-20T14:21:20;23.40;92.40
43581;DHT22;29175;51.030;4.606;2023-07-20T14:23:46;23.40;92.30
43581;DHT22;29175;51.030;4.606;2023-07-20T14:26:12;23.30;92.60
43581;DHT22;29175;51.030;4.606;2023-07-20T14:28:38;23.20;93.70
43581;DHT22;29175;51.030;4.606;2023-07-20T14:31:04;23.20;93.10
43581;DHT22;29175;51.030;4.606;2023-07-20T14:33:30;23.20;93.30
43581;DHT22;29175;51.030;4.606;2023-07-20T14:35:56;23.30;92.60
43581;DHT22;29175;51.030;4.606;2023-07-20T14:38:22;23.50;92.10
43581;DHT22;29175;51.030;4.606;2023-07-20T14:40:47;23.70;92.70
43581;DHT22;29175;51.030;4.606;2023-07-20T14:43:13;24.00;91.70
43581;DHT22;29175;51.030;4.606;2023-07-20T14:45:40;24.00;91.70
43581;DHT22;29175;51.030;4.606;2023-07-20T14:48:06;24.20;91.50
43581;DHT22;29175;51.030;4.606;2023-07-20T14:50:33;24.30;91.30
43581;DHT22;29175;51.030;4.606;2023-07-20T14:52:58;24.40;91.20
43581;DHT22;29175;51.030;4.606;2023-07-20T14:55:24;24.40;90.60
43581;DHT22;29175;51.030;4.606;2023-07-20T14:57:50;24.40;91.20
43581;DHT22;29175;51.030;4.606;2023-07-20T15:00:16;24.60;90.50
43581;DHT22;29175;51.030;4.606;2023-07-20T15:02:42;24.60;91.20
43581;DHT22;29175;51.030;4.606;2023-07-20T15:05:10;24.90;90.40
43581;DHT22;29175;51.030;4.606;2023-07-20T15:07:36;25.10;89.60
43581;DHT22;29175;51.030;4.606;2023-07-20T15:10:02;25.00;86.90
43581;DHT22;29175;51.030;4.606;2023-07-20T15:12:29;25.00;88.80
43581;DHT22;29175;51.030;4.606;2023-07-20T15:17:32;25.20;87.80
43581;DHT22;29175;51.030;4.606;2023-07-20T15:19:58;25.00;90.20
43581;DHT22;29175;51.030;4.606;2023-07-20T15:22:25;24.90;90.40
43581;DHT22;29175;51.030;4.606;2023-07-20T15:24:50;24.70;90.10
43581;DHT22;29175;51.030;4.606;2023-07-20T15:27:16;24.60;90.30
43581;DHT22;29175;51.030;4.606;2023-07-20T15:29:42;24.10;91.40
43581;DHT22;29175;51.030;4.606;2023-07-20T15:32:09;23.80;91.10
43581;DHT22;29175;51.030;4.606;2023-07-20T15:34:35;23.80;91.60
43581;DHT22;29175;51.030;4.606;2023-07-20T15:37:01;23.60;92.40
43581;DHT22;29175;51.030;4.606;2023-07-20T15:39:27;23.80;92.40
43581;DHT22;29175;51.030;4.606;2023-07-20T15:41:52;23.60;94.20
43581;DHT22;29175;51.030;4.606;2023-07-20T15:44:18;23.80;92.20
43581;DHT22;29175;51.030;4.606;2023-07-20T15:46:47;23.90;91.70
43581;DHT22;29175;51.030;4.606;2023-07-20T15:49:13;24.00;91.80
43581;DHT22;29175;51.030;4.606;2023-07-20T15:51:39;23.80;93.00
43581;DHT22;29175;51.030;4.606;2023-07-20T15:54:10;23.60;93.10
43581;DHT22;29175;51.030;4.606;2023-07-20T15:56:38;23.60;92.60